sensor_id;sensor_type;location;lat;lon;timestamp;temperature;humidity
26707;DHT22;14319;49.422;10.934;2022-09-20T00:01:03;9.20;99.90
26707;DHT22;14319;49.422;10.934;2022-09-20T00:03:04;9.20;99.90
26707;DHT22;14319;49.422;10.934;2022-09-20T00:05:05;9.30;99.90
26707;DHT22;14319;49.422;10.934;2022-09-20T00:07:07;9.20;99.90
26707;DHT22;14319;49.422;10.934;2022-09-20T00:09:08;9.20;99.90
26707;DHT22;14319;49.422;10.934;2022-09-20T00:11:12;9.20;99.90
26707;DHT22;14319;49.422;10.934;2022-09-20T00:13:14;9.10;99.90
26707;DHT22;14319;49.422;10.934;2022-09-20T00:15:15;9.10;99.90
26707;DHT22;14319;49.422;10.934;2022-09-20T00:17:16;9.10;99.90
26707;DHT22;14319;49.422;10.934;2022-09-20T00:19:20;9.10;99.90
26707;DHT22;14319;49.422;10.934;2022-09-20T00:21:23;9.20;99.90
26707;DHT22;14319;49.422;10.934;2022-09-20T00:23:24;9.20;99.90
26707;DHT22;14319;49.422;10.934;2022-09-20T00:25:25;9.20;99.90
26707;DHT22;14319;49.422;10.934;2022-09-20T00:27:26;9.30;99.90
26707;DHT22;14319;49.422;10.934;2022-09-20T00:29:27;9.40;99.90
26707;DHT22;14319;49.422;10.934;2022-09-20T00:31:28;9.50;99.90
26707;DHT22;14319;49.422;10.934;2022-09-20T00:33:29;9.60;99.90
26707;DHT22;14319;49.422;10.934;2022-09-20T00:35:50;9.60;99.90
26707;DHT22;14319;49.422;10.934;2022-09-20T00:37:51;9.60;99.90
26707;DHT22;14319;49.422;10.934;2022-09-20T00:39:51;9.40;99.90
26707;DHT22;14319;49.422;10.934;2022-09-20T00:41:52;9.30;99.90
26707;DHT22;14319;49.422;10.934;2022-09-20T00:43:53;9.30;99.90
26707;DHT22;14319;49.422;10.934;2022-09-20T00:45:54;9.30;99.90
26707;DHT22;14319;49.422;10.934;2022-09-20T00:48:26;9.40;99.90
26707;DHT22;14319;49.422;10.934;2022-09-20T00:52:35;9.20;99.90
26707;DHT22;14319;49.422;10.934;2022-09-20T00:54:36;9.10;99.90
26707;DHT22;14319;49.422;10.934;2022-09-20T00:56:39;9.20;99.90
26707;DHT22;14319;49.422;10.934;2022-09-20T00:58:50;9.10;99.90
26707;DHT22;14319;49.422;10.934;2022-09-20T01:00:55;9.30;99.90
26707;DHT22;14319;49.422;10.934;2022-09-20T01:03:01;9.30;99.90
26707;DHT22;14319;49.422;10.934;2022-09-20T01:05:03;9.40;99.90
26707;DHT22;14319;49.422;10.934;2022-09-20T01:07:06;9.30;99.90
26707;DHT22;14319;49.422;10.934;2022-09-20T01:09:07;9.30;99.90
26707;DHT22;14319;49.422;10.934;2022-09-20T01:11:08;9.30;99.90
26707;DHT22;14319;49.422;10.934;2022-09-20T01:13:09;9.20;99.90
26707;DHT22;14319;49.422;10.934;2022-09-20T01:15:10;9.30;99.90
26707;DHT22;14319;49.422;10.934;2022-09-20T01:17:11;9.30;99.90
26707;DHT22;14319;49.422;10.934;2022-09-20T01:19:33;9.30;99.90
26707;DHT22;14319;49.422;10.934;2022-09-20T01:21:37;9.40;99.90
26707;DHT22;14319;49.422;10.934;2022-09-20T01:23:55;9.40;99.90
26707;DHT22;14319;49.422;10.934;2022-09-20T01:26:27;9.50;99.90
26707;DHT22;14319;49.422;10.934;2022-09-20T01:28:29;9.60;99.90
26707;DHT22;14319;49.422;10.934;2022-09-20T01:31:23;9.60;99.90
26707;DHT22;14319;49.422;10.934;2022-09-20T01:35:25;9.50;99.90
26707;DHT22;14319;49.422;10.934;2022-09-20T01:37:49;9.60;99.90
26707;DHT22;14319;49.422;10.934;2022-09-20T01:40:05;9.50;99.90
26707;DHT22;14319;49.422;10.934;2022-09-20T01:42:12;9.50;99.90
26707;DHT22;14319;49.422;10.934;2022-09-20T01:46:37;9.60;99.90
26707;DHT22;14319;49.422;10.934;2022-09-20T01:48:39;9.50;99.90
26707;DHT22;14319;49.422;10.934;2022-09-20T01:55:34;9.50;99.90
26707;DHT22;14319;49.422;10.934;2022-09-20T02:03:24;9.30;99.90
26707;DHT22;14319;49.422;10.934;2022-09-20T02:07:48;9.10;99.90
26707;DHT22;14319;49.422;10.934;2022-09-20T02:17:05;9.00;99.90
26707;DHT22;14319;49.422;10.934;2022-09-20T02:26:30;8.90;99.90
26707;DHT22;14319;49.422;10.934;2022-09-20T02:33:46;9.00;99.90
26707;DHT22;14319;49.422;10.934;2022-09-20T02:45:06;9.00;99.90
26707;DHT22;14319;49.422;10.934;2022-09-20T02:47:38;9.00;99.90
26707;DHT22;14319;49.422;10.934;2022-09-20T02:51:59;9.00;99.90
26707;DHT22;14319;49.422;10.934;2022-09-20T02:56:28;9.10;99.90
26707;DHT22;14319;49.422;10.934;2022-09-20T03:15:22;8.90;99.90
26707;DHT22;14319;49.422;10.934;2022-09-20T03:18:15;8.80;99.90
26707;DHT22;14319;49.422;10.934;2022-09-20T03:20:33;8.90;99.90
26707;DHT22;14319;49.422;10.934;2022-09-20T03:27:22;8.80;99.90
26707;DHT22;14319;49.422;10.934;2022-09-20T03:29:33;8.90;99.90
26707;DHT22;14319;49.422;10.934;2022-09-20T03:32:03;9.00;99.90
26707;DHT22;14319;49.422;10.934;2022-09-20T03:46:01;9.00;99.90
26707;DHT22;14319;49.422;10.934;2022-09-20T03:48:12;9.00;99.90
26707;DHT22;14319;49.422;10.934;2022-09-20T03:55:36;8.90;99.90
26707;DHT22;14319;49.422;10.934;2022-09-20T03:57:57;8.90;99.90
26707;DHT22;14319;49.422;10.934;2022-09-20T04:00:07;8.90;99.90
26707;DHT22;14319;49.422;10.934;2022-09-20T04:02:33;8.90;99.90
26707;DHT22;14319;49.422;10.934;2022-09-20T04:21:17;8.40;99.90
26707;DHT22;14319;49.422;10.934;2022-09-20T04:24:00;8.50;99.90
26707;DHT22;14319;49.422;10.934;2022-09-20T04:26:03;8.60;99.90
26707;DHT22;14319;49.422;10.934;2022-09-20T04:28:10;8.70;99.90
26707;DHT22;14319;49.422;10.934;2022-09-20T04:30:25;8.80;99.90
26707;DHT22;14319;49.422;10.934;2022-09-20T04:32:41;8.60;99.90
26707;DHT22;14319;49.422;10.934;2022-09-20T04:37:33;8.80;99.90
26707;DHT22;14319;49.422;10.934;2022-09-20T04:39:56;8.70;99.90
26707;DHT22;14319;49.422;10.934;2022-09-20T04:49:35;8.20;99.90
26707;DHT22;14319;49.422;10.934;2022-09-20T04:59:02;8.10;99.90
26707;DHT22;14319;49.422;10.934;2022-09-20T05:19:15;8.10;99.90
26707;DHT22;14319;49.422;10.934;2022-09-20T05:24:16;8.10;99.90
26707;DHT22;14319;49.422;10.934;2022-09-20T05:26:50;8.20;99.90
26707;DHT22;14319;49.422;10.934;2022-09-20T05:29:09;8.30;99.90
26707;DHT22;14319;49.422;10.934;2022-09-20T05:38:58;8.40;99.90
26707;DHT22;14319;49.422;10.934;2022-09-20T05:43:51;8.50;99.90
26707;DHT22;14319;49.422;10.934;2022-09-20T05:48:39;8.50;99.90
26707;DHT22;14319;49.422;10.934;2022-09-20T05:55:50;8.90;99.90
26707;DHT22;14319;49.422;10.934;2022-09-20T05:58:18;8.80;99.90
26707;DHT22;14319;49.422;10.934;2022-09-20T06:00:24;8.80;99.90
26707;DHT22;14319;49.422;10.934;2022-09-20T06:09:41;9.50;99.40
26707;DHT22;14319;49.422;10.934;2022-09-20T06:21:53;9.60;96.70
26707;DHT22;14319;49.422;10.934;2022-09-20T06:23:59;9.30;95.80
26707;DHT22;14319;49.422;10.934;2022-09-20T06:26:08;9.20;96.20
26707;DHT22;14319;49.422;10.934;2022-09-20T06:28:16;9.30;97.70
26707;DHT22;14319;49.422;10.934;2022-09-20T06:30:28;9.40;97.20
26707;DHT22;14319;49.422;10.934;2022-09-20T06:32:29;9.50;97.40
26707;DHT22;14319;49.422;10.934;2022-09-20T06:34:31;9.70;96.20
26707;DHT22;14319;49.422;10.934;2022-09-20T06:36:33;9.90;94.70
26707;DHT22;14319;49.422;10.934;2022-09-20T06:41:24;9.80;94.30
26707;DHT22;14319;49.422;10.934;2022-09-20T06:43:31;9.70;95.30
26707;DHT22;14319;49.422;10.934;2022-09-20T06:45:31;9.70;95.30
26707;DHT22;14319;49.422;10.934;2022-09-20T06:47:32;9.70;95.70
26707;DHT22;14319;49.422;10.934;2022-09-20T06:49:34;9.50;96.40
26707;DHT22;14319;49.422;10.934;2022-09-20T06:51:37;9.70;95.50
26707;DHT22;14319;49.422;10.934;2022-09-20T06:53:39;9.70;96.30
26707;DHT22;14319;49.422;10.934;2022-09-20T06:55:41;9.90;96.30
26707;DHT22;14319;49.422;10.934;2022-09-20T06:57:43;10.10;94.50
26707;DHT22;14319;49.422;10.934;2022-09-20T06:59:44;10.00;94.90
26707;DHT22;14319;49.422;10.934;2022-09-20T07:01:45;10.10;94.10
26707;DHT22;14319;49.422;10.934;2022-09-20T07:03:46;9.90;93.30
26707;DHT22;14319;49.422;10.934;2022-09-20T07:05:47;10.00;94.10
26707;DHT22;14319;49.422;10.934;2022-09-20T07:07:48;9.90;93.90
26707;DHT22;14319;49.422;10.934;2022-09-20T07:09:48;10.00;94.20
26707;DHT22;14319;49.422;10.934;2022-09-20T07:11:49;10.10;94.20
26707;DHT22;14319;49.422;10.934;2022-09-20T07:13:52;10.00;93.80
26707;DHT22;14319;49.422;10.934;2022-09-20T07:15:59;10.00;94.00
26707;DHT22;14319;49.422;10.934;2022-09-20T07:18:00;10.10;95.30
26707;DHT22;14319;49.422;10.934;2022-09-20T07:20:01;10.20;94.40
26707;DHT22;14319;49.422;10.934;2022-09-20T07:22:02;10.20;93.40
26707;DHT22;14319;49.422;10.934;2022-09-20T07:24:03;10.20;92.00
26707;DHT22;14319;49.422;10.934;2022-09-20T07:26:04;10.10;93.10
26707;DHT22;14319;49.422;10.934;2022-09-20T07:28:05;10.20;94.20
26707;DHT22;14319;49.422;10.934;2022-09-20T07:30:07;10.30;93.40
26707;DHT22;14319;49.422;10.934;2022-09-20T07:32:08;10.40;92.80
26707;DHT22;14319;49.422;10.934;2022-09-20T07:34:09;10.40;92.00
26707;DHT22;14319;49.422;10.934;2022-09-20T07:36:11;10.40;92.20
26707;DHT22;14319;49.422;10.934;2022-09-20T07:38:12;10.20;92.80
26707;DHT22;14319;49.422;10.934;2022-09-20T07:40:13;10.20;92.40
26707;DHT22;14319;49.422;10.934;2022-09-20T07:42:15;10.40;92.60
26707;DHT22;14319;49.422;10.934;2022-09-20T07:44:16;10.40;92.00
26707;DHT22;14319;49.422;10.934;2022-09-20T07:46:20;10.50;91.60
26707;DHT22;14319;49.422;10.934;2022-09-20T07:48:24;10.40;90.40
26707;DHT22;14319;49.422;10.934;2022-09-20T07:50:26;10.30;90.60
26707;DHT22;14319;49.422;10.934;2022-09-20T07:52:26;10.20;90.40
26707;DHT22;14319;49.422;10.934;2022-09-20T07:54:27;10.20;90.10
26707;DHT22;14319;49.422;10.934;2022-09-20T07:56:28;10.30;90.90
26707;DHT22;14319;49.422;10.934;2022-09-20T07:58:31;10.50;91.90
26707;DHT22;14319;49.422;10.934;2022-09-20T08:00:33;10.60;89.00
26707;DHT22;14319;49.422;10.934;2022-09-20T08:02:34;10.70;89.60
26707;DHT22;14319;49.422;10.934;2022-09-20T08:04:34;10.70;87.10
26707;DHT22;14319;49.422;10.934;2022-09-20T08:06:37;10.60;88.80
26707;DHT22;14319;49.422;10.934;2022-09-20T08:08:38;10.60;89.20
26707;DHT22;14319;49.422;10.934;2022-09-20T08:10:40;10.80;88.80
26707;DHT22;14319;49.422;10.934;2022-09-20T08:12:40;10.90;88.90
26707;DHT22;14319;49.422;10.934;2022-09-20T08:14:41;11.00;89.40
26707;DHT22;14319;49.422;10.934;2022-09-20T08:16:44;11.10;88.00
26707;DHT22;14319;49.422;10.934;2022-09-20T08:18:48;11.10;86.00
26707;DHT22;14319;49.422;10.934;2022-09-20T08:20:49;11.00;87.00
26707;DHT22;14319;49.422;10.934;2022-09-20T08:22:50;10.90;86.40
26707;DHT22;14319;49.422;10.934;2022-09-20T08:24:50;10.70;86.80
26707;DHT22;14319;49.422;10.934;2022-09-20T08:26:51;10.70;86.80
26707;DHT22;14319;49.422;10.934;2022-09-20T08:28:54;10.60;89.30
26707;DHT22;14319;49.422;10.934;2022-09-20T08:31:03;10.70;88.90
26707;DHT22;14319;49.422;10.934;2022-09-20T08:33:03;10.60;87.30
26707;DHT22;14319;49.422;10.934;2022-09-20T08:35:06;10.70;85.10
26707;DHT22;14319;49.422;10.934;2022-09-20T08:37:07;10.70;85.70
26707;DHT22;14319;49.422;10.934;2022-09-20T08:39:08;10.70;86.60
26707;DHT22;14319;49.422;10.934;2022-09-20T08:41:13;10.70;85.50
26707;DHT22;14319;49.422;10.934;2022-09-20T08:43:16;10.80;86.90
26707;DHT22;14319;49.422;10.934;2022-09-20T08:45:20;10.90;86.10
26707;DHT22;14319;49.422;10.934;2022-09-20T08:49:30;11.10;83.10
26707;DHT22;14319;49.422;10.934;2022-09-20T08:51:33;11.10;82.00
26707;DHT22;14319;49.422;10.934;2022-09-20T08:53:42;11.00;83.40
26707;DHT22;14319;49.422;10.934;2022-09-20T08:55:47;11.20;86.20
26707;DHT22;14319;49.422;10.934;2022-09-20T08:57:52;11.50;83.10
26707;DHT22;14319;49.422;10.934;2022-09-20T08:59:53;11.60;84.10
26707;DHT22;14319;49.422;10.934;2022-09-20T09:01:54;11.50;79.40
26707;DHT22;14319;49.422;10.934;2022-09-20T09:04:01;11.50;78.40
26707;DHT22;14319;49.422;10.934;2022-09-20T09:06:09;11.30;79.90
26707;DHT22;14319;49.422;10.934;2022-09-20T09:10:19;11.70;82.10
26707;DHT22;14319;49.422;10.934;2022-09-20T09:12:23;11.50;79.80
26707;DHT22;14319;49.422;10.934;2022-09-20T09:14:34;11.60;81.30
26707;DHT22;14319;49.422;10.934;2022-09-20T09:16:53;11.90;79.10
26707;DHT22;14319;49.422;10.934;2022-09-20T09:18:54;11.80;78.30
26707;DHT22;14319;49.422;10.934;2022-09-20T09:20:56;12.10;81.10
26707;DHT22;14319;49.422;10.934;2022-09-20T09:23:04;12.00;78.40
26707;DHT22;14319;49.422;10.934;2022-09-20T09:25:18;12.00;76.90
26707;DHT22;14319;49.422;10.934;2022-09-20T09:27:21;12.10;78.10
26707;DHT22;14319;49.422;10.934;2022-09-20T09:29:22;12.10;75.40
26707;DHT22;14319;49.422;10.934;2022-09-20T09:31:24;11.90;76.70
26707;DHT22;14319;49.422;10.934;2022-09-20T09:33:30;11.90;78.60
26707;DHT22;14319;49.422;10.934;2022-09-20T09:35:34;11.50;80.30
26707;DHT22;14319;49.422;10.934;2022-09-20T09:37:35;11.50;79.40
26707;DHT22;14319;49.422;10.934;2022-09-20T09:39:36;11.40;81.20
26707;DHT22;14319;49.422;10.934;2022-09-20T09:41:37;11.40;81.40
26707;DHT22;14319;49.422;10.934;2022-09-20T09:43:38;11.40;80.80
26707;DHT22;14319;49.422;10.934;2022-09-20T09:45:40;11.30;82.10
26707;DHT22;14319;49.422;10.934;2022-09-20T09:47:41;11.10;80.30
26707;DHT22;14319;49.422;10.934;2022-09-20T09:49:58;11.00;82.90
26707;DHT22;14319;49.422;10.934;2022-09-20T09:52:16;10.90;83.60
26707;DHT22;14319;49.422;10.934;2022-09-20T09:54:27;11.00;83.80
26707;DHT22;14319;49.422;10.934;2022-09-20T09:56:43;11.50;83.80
26707;DHT22;14319;49.422;10.934;2022-09-20T10:01:00;11.50;79.90
26707;DHT22;14319;49.422;10.934;2022-09-20T10:03:31;11.60;81.30
26707;DHT22;14319;49.422;10.934;2022-09-20T10:08:13;9.90;99.90
26707;DHT22;14319;49.422;10.934;2022-09-20T10:12:47;9.70;99.90
26707;DHT22;14319;49.422;10.934;2022-09-20T10:15:15;9.70;99.90
26707;DHT22;14319;49.422;10.934;2022-09-20T10:22:20;9.40;99.90
26707;DHT22;14319;49.422;10.934;2022-09-20T10:24:49;9.20;99.90
26707;DHT22;14319;49.422;10.934;2022-09-20T10:27:17;9.10;99.90
26707;DHT22;14319;49.422;10.934;2022-09-20T10:32:04;9.60;99.90
26707;DHT22;14319;49.422;10.934;2022-09-20T10:34:21;9.60;99.90
26707;DHT22;14319;49.422;10.934;2022-09-20T10:36:31;10.00;99.90
26707;DHT22;14319;49.422;10.934;2022-09-20T10:38:51;10.20;99.90
26707;DHT22;14319;49.422;10.934;2022-09-20T10:41:22;10.10;99.90
26707;DHT22;14319;49.422;10.934;2022-09-20T10:49:02;9.70;99.90
26707;DHT22;14319;49.422;10.934;2022-09-20T10:51:05;9.80;99.90
26707;DHT22;14319;49.422;10.934;2022-09-20T10:55:57;10.00;99.90
26707;DHT22;14319;49.422;10.934;2022-09-20T10:58:20;10.40;99.90
26707;DHT22;14319;49.422;10.934;2022-09-20T11:05:28;10.50;99.90
26707;DHT22;14319;49.422;10.934;2022-09-20T11:09:48;10.60;99.90
26707;DHT22;14319;49.422;10.934;2022-09-20T11:11:55;10.80;99.90
26707;DHT22;14319;49.422;10.934;2022-09-20T11:16:46;11.00;99.90
26707;DHT22;14319;49.422;10.934;2022-09-20T11:19:10;10.80;99.90
26707;DHT22;14319;49.422;10.934;2022-09-20T11:21:18;10.80;99.90
26707;DHT22;14319;49.422;10.934;2022-09-20T11:23:27;11.20;99.90
26707;DHT22;14319;49.422;10.934;2022-09-20T11:25:41;11.00;95.50
26707;DHT22;14319;49.422;10.934;2022-09-20T11:27:58;11.20;99.40
26707;DHT22;14319;49.422;10.934;2022-09-20T11:30:02;11.30;99.90
26707;DHT22;14319;49.422;10.934;2022-09-20T11:34:46;11.50;93.00
26707;DHT22;14319;49.422;10.934;2022-09-20T11:39:01;11.80;92.10
26707;DHT22;14319;49.422;10.934;2022-09-20T11:41:13;11.80;85.10
26707;DHT22;14319;49.422;10.934;2022-09-20T11:43:15;11.80;82.20
26707;DHT22;14319;49.422;10.934;2022-09-20T11:45:19;11.90;81.20
26707;DHT22;14319;49.422;10.934;2022-09-20T11:48:06;11.90;79.40
26707;DHT22;14319;49.422;10.934;2022-09-20T11:49:53;11.80;82.20
26707;DHT22;14319;49.422;10.934;2022-09-20T11:57:13;11.60;82.90
26707;DHT22;14319;49.422;10.934;2022-09-20T11:59:27;11.50;79.70
26707;DHT22;14319;49.422;10.934;2022-09-20T12:01:35;11.50;81.60
26707;DHT22;14319;49.422;10.934;2022-09-20T12:03:43;11.50;79.00
26707;DHT22;14319;49.422;10.934;2022-09-20T12:05:57;11.60;84.20
26707;DHT22;14319;49.422;10.934;2022-09-20T12:08:01;11.70;81.40
26707;DHT22;14319;49.422;10.934;2022-09-20T12:10:24;11.70;83.60
26707;DHT22;14319;49.422;10.934;2022-09-20T12:12:54;11.70;82.10
26707;DHT22;14319;49.422;10.934;2022-09-20T12:14:57;11.70;78.50
26707;DHT22;14319;49.422;10.934;2022-09-20T12:16:59;11.70;80.00
26707;DHT22;14319;49.422;10.934;2022-09-20T12:19:02;11.70;78.20
26707;DHT22;14319;49.422;10.934;2022-09-20T12:21:06;11.70;84.00
26707;DHT22;14319;49.422;10.934;2022-09-20T12:25:38;11.70;83.90
26707;DHT22;14319;49.422;10.934;2022-09-20T12:31:55;11.60;82.70
26707;DHT22;14319;49.422;10.934;2022-09-20T12:36:15;11.70;83.70
26707;DHT22;14319;49.422;10.934;2022-09-20T12:40:17;12.00;82.00
26707;DHT22;14319;49.422;10.934;2022-09-20T12:46:41;12.10;82.20
26707;DHT22;14319;49.422;10.934;2022-09-20T12:48:43;12.00;77.90
26707;DHT22;14319;49.422;10.934;2022-09-20T12:53:21;11.80;81.10
26707;DHT22;14319;49.422;10.934;2022-09-20T12:57:40;11.90;81.70
26707;DHT22;14319;49.422;10.934;2022-09-20T12:59:42;11.90;83.90
26707;DHT22;14319;49.422;10.934;2022-09-20T13:01:43;11.80;82.30
26707;DHT22;14319;49.422;10.934;2022-09-20T13:03:49;11.80;80.90
26707;DHT22;14319;49.422;10.934;2022-09-20T13:06:20;11.70;83.90
26707;DHT22;14319;49.422;10.934;2022-09-20T13:08:27;11.70;83.40
26707;DHT22;14319;49.422;10.934;2022-09-20T13:10:31;11.70;80.30
26707;DHT22;14319;49.422;10.934;2022-09-20T13:12:36;11.60;77.90
26707;DHT22;14319;49.422;10.934;2022-09-20T13:14:38;11.60;78.20
26707;DHT22;14319;49.422;10.934;2022-09-20T13:16:59;11.60;77.90
26707;DHT22;14319;49.422;10.934;2022-09-20T13:19:05;11.60;79.60
26707;DHT22;14319;49.422;10.934;2022-09-20T13:21:07;11.50;75.40
26707;DHT22;14319;49.422;10.934;2022-09-20T13:23:17;11.50;74.40
26707;DHT22;14319;49.422;10.934;2022-09-20T13:25:20;11.70;78.90
26707;DHT22;14319;49.422;10.934;2022-09-20T13:29:38;11.90;78.70
26707;DHT22;14319;49.422;10.934;2022-09-20T13:31:39;12.00;74.90
26707;DHT22;14319;49.422;10.934;2022-09-20T13:33:40;12.00;75.00
26707;DHT22;14319;49.422;10.934;2022-09-20T13:35:43;12.00;75.10
26707;DHT22;14319;49.422;10.934;2022-09-20T13:37:49;12.10;79.30
26707;DHT22;14319;49.422;10.934;2022-09-20T13:39:54;12.20;76.20
26707;DHT22;14319;49.422;10.934;2022-09-20T13:41:58;12.30;77.60
26707;DHT22;14319;49.422;10.934;2022-09-20T13:44:01;12.30;75.90
26707;DHT22;14319;49.422;10.934;2022-09-20T13:48:27;12.40;74.80
26707;DHT22;14319;49.422;10.934;2022-09-20T13:50:31;12.40;75.80
26707;DHT22;14319;49.422;10.934;2022-09-20T13:52:53;12.30;73.40
26707;DHT22;14319;49.422;10.934;2022-09-20T13:54:55;12.30;74.80
26707;DHT22;14319;49.422;10.934;2022-09-20T13:57:04;12.40;73.30
26707;DHT22;14319;49.422;10.934;2022-09-20T13:59:09;12.60;73.90
26707;DHT22;14319;49.422;10.934;2022-09-20T14:01:28;12.80;72.40
26707;DHT22;14319;49.422;10.934;2022-09-20T14:03:32;12.90;70.20
26707;DHT22;14319;49.422;10.934;2022-09-20T14:05:33;12.90;72.10
26707;DHT22;14319;49.422;10.934;2022-09-20T14:07:34;12.90;73.50
26707;DHT22;14319;49.422;10.934;2022-09-20T14:09:37;13.00;72.20
26707;DHT22;14319;49.422;10.934;2022-09-20T14:11:41;13.00;74.00
26707;DHT22;14319;49.422;10.934;2022-09-20T14:13:45;13.10;72.10
26707;DHT22;14319;49.422;10.934;2022-09-20T14:15:47;13.20;74.60
26707;DHT22;14319;49.422;10.934;2022-09-20T14:17:49;13.30;74.30
26707;DHT22;14319;49.422;10.934;2022-09-20T14:19:53;13.30;74.30
26707;DHT22;14319;49.422;10.934;2022-09-20T14:21:55;13.20;73.90
26707;DHT22;14319;49.422;10.934;2022-09-20T14:23:59;13.10;71.60
26707;DHT22;14319;49.422;10.934;2022-09-20T14:28:18;12.80;72.10
26707;DHT22;14319;49.422;10.934;2022-09-20T14:30:34;12.80;72.90
26707;DHT22;14319;49.422;10.934;2022-09-20T14:32:43;12.90;71.20
26707;DHT22;14319;49.422;10.934;2022-09-20T14:34:57;12.80;71.60
26707;DHT22;14319;49.422;10.934;2022-09-20T14:37:05;12.80;71.10
26707;DHT22;14319;49.422;10.934;2022-09-20T14:39:13;12.80;73.90
26707;DHT22;14319;49.422;10.934;2022-09-20T14:41:27;12.70;72.20
26707;DHT22;14319;49.422;10.934;2022-09-20T14:43:32;12.70;70.40
26707;DHT22;14319;49.422;10.934;2022-09-20T14:45:36;12.70;71.90
26707;DHT22;14319;49.422;10.934;2022-09-20T14:47:52;12.60;71.60
26707;DHT22;14319;49.422;10.934;2022-09-20T14:49:54;12.70;71.40
26707;DHT22;14319;49.422;10.934;2022-09-20T14:54:30;12.70;71.00
26707;DHT22;14319;49.422;10.934;2022-09-20T14:56:36;12.70;71.40
26707;DHT22;14319;49.422;10.934;2022-09-20T14:59:17;12.70;71.20
26707;DHT22;14319;49.422;10.934;2022-09-20T15:01:23;12.80;72.40
26707;DHT22;14319;49.422;10.934;2022-09-20T15:03:27;12.70;71.60
26707;DHT22;14319;49.422;10.934;2022-09-20T15:05:28;12.70;72.90
26707;DHT22;14319;49.422;10.934;2022-09-20T15:07:29;12.80;71.80
26707;DHT22;14319;49.422;10.934;2022-09-20T15:09:31;12.90;73.70
26707;DHT22;14319;49.422;10.934;2022-09-20T15:11:32;12.90;72.10
26707;DHT22;14319;49.422;10.934;2022-09-20T15:13:33;12.90;72.60
26707;DHT22;14319;49.422;10.934;2022-09-20T15:15:36;13.00;73.70
26707;DHT22;14319;49.422;10.934;2022-09-20T15:17:36;13.00;70.20
26707;DHT22;14319;49.422;10.934;2022-09-20T15:19:37;13.00;70.90
26707;DHT22;14319;49.422;10.934;2022-09-20T15:21:38;13.00;69.60
26707;DHT22;14319;49.422;10.934;2022-09-20T15:23:39;13.10;71.20
26707;DHT22;14319;49.422;10.934;2022-09-20T15:25:40;13.10;70.40
26707;DHT22;14319;49.422;10.934;2022-09-20T15:27:43;13.10;69.90
26707;DHT22;14319;49.422;10.934;2022-09-20T15:29:45;13.00;71.80
26707;DHT22;14319;49.422;10.934;2022-09-20T15:31:47;12.70;71.40
26707;DHT22;14319;49.422;10.934;2022-09-20T15:33:48;12.60;72.70
26707;DHT22;14319;49.422;10.934;2022-09-20T15:35:49;12.50;73.60
26707;DHT22;14319;49.422;10.934;2022-09-20T15:37:50;12.70;74.20
26707;DHT22;14319;49.422;10.934;2022-09-20T15:39:51;12.90;74.20
26707;DHT22;14319;49.422;10.934;2022-09-20T15:41:52;12.90;72.10
26707;DHT22;14319;49.422;10.934;2022-09-20T15:43:52;12.70;71.50
26707;DHT22;14319;49.422;10.934;2022-09-20T15:45:55;12.60;73.80
26707;DHT22;14319;49.422;10.934;2022-09-20T15:47:57;12.40;73.90
26707;DHT22;14319;49.422;10.934;2022-09-20T15:49:58;12.30;75.00
26707;DHT22;14319;49.422;10.934;2022-09-20T15:51:59;12.00;75.30
26707;DHT22;14319;49.422;10.934;2022-09-20T15:54:02;11.80;76.10
26707;DHT22;14319;49.422;10.934;2022-09-20T15:56:15;11.70;76.70
26707;DHT22;14319;49.422;10.934;2022-09-20T15:58:16;11.60;77.10
26707;DHT22;14319;49.422;10.934;2022-09-20T16:00:18;11.60;76.70
26707;DHT22;14319;49.422;10.934;2022-09-20T16:02:19;11.60;76.50
26707;DHT22;14319;49.422;10.934;2022-09-20T16:04:21;11.60;76.00
26707;DHT22;14319;49.422;10.934;2022-09-20T16:06:23;11.60;77.10
26707;DHT22;14319;49.422;10.934;2022-09-20T16:08:24;11.70;76.50
26707;DHT22;14319;49.422;10.934;2022-09-20T16:10:25;11.90;75.80
26707;DHT22;14319;49.422;10.934;2022-09-20T16:12:26;11.70;75.60
26707;DHT22;14319;49.422;10.934;2022-09-20T16:14:27;11.80;76.40
26707;DHT22;14319;49.422;10.934;2022-09-20T16:16:29;11.90;77.40
26707;DHT22;14319;49.422;10.934;2022-09-20T16:18:30;12.00;77.80
26707;DHT22;14319;49.422;10.934;2022-09-20T16:20:50;12.20;75.60
26707;DHT22;14319;49.422;10.934;2022-09-20T16:22:51;12.20;76.90
26707;DHT22;14319;49.422;10.934;2022-09-20T16:24:52;12.20;76.00
26707;DHT22;14319;49.422;10.934;2022-09-20T16:26:53;12.10;77.00
26707;DHT22;14319;49.422;10.934;2022-09-20T16:28:55;12.10;75.90
26707;DHT22;14319;49.422;10.934;2022-09-20T16:30:58;11.90;76.30
26707;DHT22;14319;49.422;10.934;2022-09-20T16:32:59;11.80;74.60
26707;DHT22;14319;49.422;10.934;2022-09-20T16:35:05;11.80;76.20
26707;DHT22;14319;49.422;10.934;2022-09-20T16:37:12;11.80;75.60
26707;DHT22;14319;49.422;10.934;2022-09-20T16:39:17;11.80;76.00
26707;DHT22;14319;49.422;10.934;2022-09-20T16:41:18;11.80;78.00
26707;DHT22;14319;49.422;10.934;2022-09-20T16:43:19;11.70;77.60
26707;DHT22;14319;49.422;10.934;2022-09-20T16:45:25;11.60;79.60
26707;DHT22;14319;49.422;10.934;2022-09-20T16:47:27;11.50;79.10
26707;DHT22;14319;49.422;10.934;2022-09-20T16:49:29;11.60;78.80
26707;DHT22;14319;49.422;10.934;2022-09-20T16:51:32;11.70;78.60
26707;DHT22;14319;49.422;10.934;2022-09-20T16:53:33;11.60;77.30
26707;DHT22;14319;49.422;10.934;2022-09-20T16:55:34;11.50;79.20
26707;DHT22;14319;49.422;10.934;2022-09-20T16:57:34;11.40;79.50
26707;DHT22;14319;49.422;10.934;2022-09-20T16:59:36;11.30;79.90
26707;DHT22;14319;49.422;10.934;2022-09-20T17:01:38;11.40;80.30
26707;DHT22;14319;49.422;10.934;2022-09-20T17:03:39;11.50;80.60
26707;DHT22;14319;49.422;10.934;2022-09-20T17:05:40;11.70;78.50
26707;DHT22;14319;49.422;10.934;2022-09-20T17:07:42;11.70;78.00
26707;DHT22;14319;49.422;10.934;2022-09-20T17:09:43;11.80;78.10
26707;DHT22;14319;49.422;10.934;2022-09-20T17:11:46;11.80;78.20
26707;DHT22;14319;49.422;10.934;2022-09-20T17:13:50;11.80;78.30
26707;DHT22;14319;49.422;10.934;2022-09-20T17:16:06;11.80;78.20
26707;DHT22;14319;49.422;10.934;2022-09-20T17:18:07;11.80;78.40
26707;DHT22;14319;49.422;10.934;2022-09-20T17:20:09;11.80;78.20
26707;DHT22;14319;49.422;10.934;2022-09-20T17:22:10;11.80;77.60
26707;DHT22;14319;49.422;10.934;2022-09-20T17:24:11;11.70;77.80
26707;DHT22;14319;49.422;10.934;2022-09-20T17:26:15;11.70;77.90
26707;DHT22;14319;49.422;10.934;2022-09-20T17:28:17;11.60;77.80
26707;DHT22;14319;49.422;10.934;2022-09-20T17:30:18;11.60;78.20